sensor_id;sensor_type;location;lat;lon;timestamp;pressure;altitude;pressure_sealevel;temperature;humidity
48810;BME280;40070;47.322;18.784;2022-07-21T00:00:23;1004.27;;;24.86;38.17
48810;BME280;40070;47.322;18.784;2022-07-21T00:02:25;1004.24;;;24.92;37.89
48810;BME280;40070;47.322;18.784;2022-07-21T00:04:26;1004.21;;;24.87;38.12
48810;BME280;40070;47.322;18.784;2022-07-21T00:06:27;1004.19;;;24.76;37.98
48810;BME280;40070;47.322;18.784;2022-07-21T00:08:28;1004.24;;;24.84;37.84
48810;BME280;40070;47.322;18.784;2022-07-21T00:10:29;1004.22;;;24.79;37.81
48810;BME280;40070;47.322;18.784;2022-07-21T00:12:30;1004.24;;;24.75;37.88
48810;BME280;40070;47.322;18.784;2022-07-21T00:14:31;1004.25;;;24.74;37.63
48810;BME280;40070;47.322;18.784;2022-07-21T00:16:32;1004.22;;;24.77;37.41
48810;BME280;40070;47.322;18.784;2022-07-21T00:18:33;1004.19;;;24.78;37.74
48810;BME280;40070;47.322;18.784;2022-07-21T00:20:34;1004.20;;;24.73;37.74
48810;BME280;40070;47.322;18.784;2022-07-21T00:22:35;1004.21;;;24.75;37.74
48810;BME280;40070;47.322;18.784;2022-07-21T00:24:36;1004.21;;;24.67;38.00
48810;BME280;40070;47.322;18.784;2022-07-21T00:26:37;1004.22;;;24.57;38.29
48810;BME280;40070;47.322;18.784;2022-07-21T00:28:39;1004.26;;;24.70;37.98
48810;BME280;40070;47.322;18.784;2022-07-21T00:30:40;1004.25;;;24.59;38.27
48810;BME280;40070;47.322;18.784;2022-07-21T00:32:41;1004.29;;;24.62;38.21
48810;BME280;40070;47.322;18.784;2022-07-21T00:34:43;1004.29;;;24.65;38.33
48810;BME280;40070;47.322;18.784;2022-07-21T00:36:43;1004.28;;;24.69;38.05
48810;BME280;40070;47.322;18.784;2022-07-21T00:38:44;1004.29;;;24.70;38.19
48810;BME280;40070;47.322;18.784;2022-07-21T00:40:45;1004.27;;;24.63;38.36
48810;BME280;40070;47.322;18.784;2022-07-21T00:42:46;1004.29;;;24.53;38.64
48810;BME280;40070;47.322;18.784;2022-07-21T00:44:47;1004.26;;;24.59;38.51
48810;BME280;40070;47.322;18.784;2022-07-21T00:46:48;1004.27;;;24.50;38.61
48810;BME280;40070;47.322;18.784;2022-07-21T00:48:50;1004.27;;;24.48;38.65
48810;BME280;40070;47.322;18.784;2022-07-21T00:50:50;1004.27;;;24.51;38.64
48810;BME280;40070;47.322;18.784;2022-07-21T00:52:51;1004.26;;;24.37;39.04
48810;BME280;40070;47.322;18.784;2022-07-21T00:54:53;1004.27;;;24.40;39.03
48810;BME280;40070;47.322;18.784;2022-07-21T00:56:54;1004.27;;;24.41;39.05
48810;BME280;40070;47.322;18.784;2022-07-21T00:58:55;1004.25;;;24.30;39.36
48810;BME280;40070;47.322;18.784;2022-07-21T01:00:56;1004.24;;;24.43;39.03
48810;BME280;40070;47.322;18.784;2022-07-21T01:02:57;1004.26;;;24.36;39.20
48810;BME280;40070;47.322;18.784;2022-07-21T01:04:58;1004.27;;;24.35;39.25
48810;BME280;40070;47.322;18.784;2022-07-21T01:07:03;1004.28;;;24.34;39.25
48810;BME280;40070;47.322;18.784;2022-07-21T01:09:04;1004.30;;;24.46;38.95
48810;BME280;40070;47.322;18.784;2022-07-21T01:11:05;1004.36;;;24.43;38.90
48810;BME280;40070;47.322;18.784;2022-07-21T01:13:06;1004.30;;;24.61;38.65
48810;BME280;40070;47.322;18.784;2022-07-21T01:15:08;1004.36;;;24.54;38.67
48810;BME280;40070;47.322;18.784;2022-07-21T01:17:09;1004.29;;;24.47;38.79
48810;BME280;40070;47.322;18.784;2022-07-21T01:19:10;1004.28;;;24.43;38.84
48810;BME280;40070;47.322;18.784;2022-07-21T01:23:28;1004.22;;;24.39;38.82
48810;BME280;40070;47.322;18.784;2022-07-21T01:25:29;1004.21;;;24.37;38.96
48810;BME280;40070;47.322;18.784;2022-07-21T01:27:30;1004.21;;;24.33;39.03
48810;BME280;40070;47.322;18.784;2022-07-21T01:29:31;1004.21;;;24.31;38.93
48810;BME280;40070;47.322;18.784;2022-07-21T01:31:32;1004.22;;;24.40;38.75
48810;BME280;40070;47.322;18.784;2022-07-21T01:33:33;1004.25;;;24.38;38.83
48810;BME280;40070;47.322;18.784;2022-07-21T01:35:34;1004.27;;;24.32;39.00
48810;BME280;40070;47.322;18.784;2022-07-21T01:37:36;1004.29;;;24.35;39.18
48810;BME280;40070;47.322;18.784;2022-07-21T01:39:37;1004.25;;;24.49;39.38
48810;BME280;40070;47.322;18.784;2022-07-21T01:41:38;1004.23;;;24.37;39.07
48810;BME280;40070;47.322;18.784;2022-07-21T01:43:39;1004.22;;;24.16;39.32
48810;BME280;40070;47.322;18.784;2022-07-21T01:45:40;1004.20;;;24.05;39.63
48810;BME280;40070;47.322;18.784;2022-07-21T01:47:41;1004.24;;;24.05;39.67
48810;BME280;40070;47.322;18.784;2022-07-21T01:49:45;1004.22;;;24.11;39.29
48810;BME280;40070;47.322;18.784;2022-07-21T01:51:47;1004.21;;;24.13;39.29
48810;BME280;40070;47.322;18.784;2022-07-21T01:53:48;1004.29;;;24.09;39.48
48810;BME280;40070;47.322;18.784;2022-07-21T01:55:49;1004.31;;;24.03;39.72
48810;BME280;40070;47.322;18.784;2022-07-21T01:57:50;1004.35;;;23.89;40.20
48810;BME280;40070;47.322;18.784;2022-07-21T01:59:51;1004.38;;;23.89;40.20
48810;BME280;40070;47.322;18.784;2022-07-21T02:01:52;1004.33;;;23.89;40.20
48810;BME280;40070;47.322;18.784;2022-07-21T02:03:53;1004.36;;;23.78;40.46
48810;BME280;40070;47.322;18.784;2022-07-21T02:06:03;1004.30;;;23.65;40.68
48810;BME280;40070;47.322;18.784;2022-07-21T02:08:05;1004.27;;;23.81;40.26
48810;BME280;40070;47.322;18.784;2022-07-21T02:10:06;1004.31;;;23.70;40.34
48810;BME280;40070;47.322;18.784;2022-07-21T02:12:07;1004.39;;;23.60;40.92
48810;BME280;40070;47.322;18.784;2022-07-21T02:14:08;1004.41;;;23.64;40.96
48810;BME280;40070;47.322;18.784;2022-07-21T02:16:09;1004.40;;;23.62;41.21
48810;BME280;40070;47.322;18.784;2022-07-21T02:18:10;1004.40;;;23.61;41.04
48810;BME280;40070;47.322;18.784;2022-07-21T02:20:11;1004.44;;;23.51;41.18
48810;BME280;40070;47.322;18.784;2022-07-21T02:22:12;1004.48;;;23.60;41.00
48810;BME280;40070;47.322;18.784;2022-07-21T02:24:13;1004.46;;;23.68;40.85
48810;BME280;40070;47.322;18.784;2022-07-21T02:26:14;1004.51;;;23.33;41.66
48810;BME280;40070;47.322;18.784;2022-07-21T02:28:15;1004.52;;;23.49;41.23
48810;BME280;40070;47.322;18.784;2022-07-21T02:30:16;1004.50;;;23.55;41.19
48810;BME280;40070;47.322;18.784;2022-07-21T02:32:17;1004.48;;;23.35;41.71
48810;BME280;40070;47.322;18.784;2022-07-21T02:34:18;1004.47;;;23.23;42.27
48810;BME280;40070;47.322;18.784;2022-07-21T02:36:19;1004.49;;;23.32;42.07
48810;BME280;40070;47.322;18.784;2022-07-21T02:38:20;1004.46;;;23.34;42.06
48810;BME280;40070;47.322;18.784;2022-07-21T02:40:21;1004.44;;;23.07;42.74
48810;BME280;40070;47.322;18.784;2022-07-21T02:42:22;1004.42;;;22.80;43.11
48810;BME280;40070;47.322;18.784;2022-07-21T02:44:23;1004.44;;;22.89;43.48
48810;BME280;40070;47.322;18.784;2022-07-21T02:46:24;1004.35;;;22.86;43.54
48810;BME280;40070;47.322;18.784;2022-07-21T02:48:25;1004.37;;;22.75;43.80
48810;BME280;40070;47.322;18.784;2022-07-21T02:50:28;1004.36;;;22.77;43.10
48810;BME280;40070;47.322;18.784;2022-07-21T02:52:29;1004.32;;;22.87;42.61
48810;BME280;40070;47.322;18.784;2022-07-21T02:54:30;1004.39;;;23.07;42.35
48810;BME280;40070;47.322;18.784;2022-07-21T02:56:31;1004.38;;;23.34;41.79
48810;BME280;40070;47.322;18.784;2022-07-21T02:58:32;1004.29;;;23.27;41.77
48810;BME280;40070;47.322;18.784;2022-07-21T03:00:33;1004.29;;;23.28;41.66
48810;BME280;40070;47.322;18.784;2022-07-21T03:02:34;1004.30;;;23.44;41.17
48810;BME280;40070;47.322;18.784;2022-07-21T03:04:37;1004.31;;;23.47;41.28
48810;BME280;40070;47.322;18.784;2022-07-21T03:06:39;1004.39;;;23.50;41.23
48810;BME280;40070;47.322;18.784;2022-07-21T03:08:40;1004.38;;;23.67;40.82
48810;BME280;40070;47.322;18.784;2022-07-21T03:10:41;1004.41;;;23.67;40.76
48810;BME280;40070;47.322;18.784;2022-07-21T03:12:42;1004.42;;;23.58;41.01
48810;BME280;40070;47.322;18.784;2022-07-21T03:14:43;1004.43;;;23.56;41.21
48810;BME280;40070;47.322;18.784;2022-07-21T03:16:44;1004.42;;;23.68;40.76
48810;BME280;40070;47.322;18.784;2022-07-21T03:18:45;1004.42;;;23.66;40.67
48810;BME280;40070;47.322;18.784;2022-07-21T03:20:46;1004.42;;;23.64;40.83
48810;BME280;40070;47.322;18.784;2022-07-21T03:22:47;1004.46;;;23.64;40.87
48810;BME280;40070;47.322;18.784;2022-07-21T03:24:47;1004.43;;;23.63;40.79
48810;BME280;40070;47.322;18.784;2022-07-21T03:26:49;1004.40;;;23.66;40.77
48810;BME280;40070;47.322;18.784;2022-07-21T03:28:50;1004.39;;;23.64;41.11
48810;BME280;40070;47.322;18.784;2022-07-21T03:30:51;1004.42;;;23.67;40.90
48810;BME280;40070;47.322;18.784;2022-07-21T03:32:52;1004.42;;;23.49;41.69
48810;BME280;40070;47.322;18.784;2022-07-21T03:34:53;1004.39;;;23.60;41.36
48810;BME280;40070;47.322;18.784;2022-07-21T03:36:54;1004.42;;;23.65;41.35
48810;BME280;40070;47.322;18.784;2022-07-21T03:38:55;1004.48;;;23.56;41.60
48810;BME280;40070;47.322;18.784;2022-07-21T03:40:56;1004.43;;;23.55;41.61
48810;BME280;40070;47.322;18.784;2022-07-21T03:42:58;1004.45;;;23.59;41.58
48810;BME280;40070;47.322;18.784;2022-07-21T03:44:59;1004.46;;;23.52;41.94
48810;BME280;40070;47.322;18.784;2022-07-21T03:47:00;1004.49;;;23.60;41.64
48810;BME280;40070;47.322;18.784;2022-07-21T03:49:01;1004.49;;;23.55;41.88
48810;BME280;40070;47.322;18.784;2022-07-21T03:51:02;1004.50;;;23.63;41.69
48810;BME280;40070;47.322;18.784;2022-07-21T03:53:03;1004.50;;;23.78;41.27
48810;BME280;40070;47.322;18.784;2022-07-21T03:55:05;1004.50;;;23.72;41.44
48810;BME280;40070;47.322;18.784;2022-07-21T03:57:06;1004.50;;;23.83;41.29
48810;BME280;40070;47.322;18.784;2022-07-21T03:59:07;1004.53;;;23.86;41.19
48810;BME280;40070;47.322;18.784;2022-07-21T04:01:08;1004.51;;;23.88;41.26
48810;BME280;40070;47.322;18.784;2022-07-21T04:03:09;1004.49;;;24.08;40.93
48810;BME280;40070;47.322;18.784;2022-07-21T04:05:10;1004.48;;;24.13;40.69
48810;BME280;40070;47.322;18.784;2022-07-21T04:07:12;1004.44;;;24.08;40.90
48810;BME280;40070;47.322;18.784;2022-07-21T04:09:13;1004.45;;;24.00;41.33
48810;BME280;40070;47.322;18.784;2022-07-21T04:11:14;1004.47;;;23.99;41.50
48810;BME280;40070;47.322;18.784;2022-07-21T04:13:15;1004.49;;;23.99;42.27
48810;BME280;40070;47.322;18.784;2022-07-21T04:15:16;1004.49;;;24.09;42.48
48810;BME280;40070;47.322;18.784;2022-07-21T04:17:17;1004.48;;;24.15;41.73
48810;BME280;40070;47.322;18.784;2022-07-21T04:19:18;1004.49;;;24.28;41.82
48810;BME280;40070;47.322;18.784;2022-07-21T04:21:19;1004.47;;;24.38;41.40
48810;BME280;40070;47.322;18.784;2022-07-21T04:23:20;1004.48;;;24.49;41.29
48810;BME280;40070;47.322;18.784;2022-07-21T04:25:21;1004.48;;;24.52;41.17
48810;BME280;40070;47.322;18.784;2022-07-21T04:27:22;1004.49;;;24.52;41.32
48810;BME280;40070;47.322;18.784;2022-07-21T04:29:23;1004.49;;;24.56;41.25
48810;BME280;40070;47.322;18.784;2022-07-21T04:31:24;1004.51;;;24.66;41.11
48810;BME280;40070;47.322;18.784;2022-07-21T04:33:25;1004.58;;;24.70;40.96
48810;BME280;40070;47.322;18.784;2022-07-21T04:35:26;1004.62;;;24.74;40.96
48810;BME280;40070;47.322;18.784;2022-07-21T04:37:27;1004.64;;;24.78;40.86
48810;BME280;40070;47.322;18.784;2022-07-21T04:39:28;1004.64;;;24.98;40.84
48810;BME280;40070;47.322;18.784;2022-07-21T04:41:29;1004.65;;;25.05;40.48
48810;BME280;40070;47.322;18.784;2022-07-21T04:43:30;1004.66;;;25.03;40.74
48810;BME280;40070;47.322;18.784;2022-07-21T04:45:31;1004.63;;;25.11;40.73
48810;BME280;40070;47.322;18.784;2022-07-21T04:47:32;1004.64;;;25.22;40.59
48810;BME280;40070;47.322;18.784;2022-07-21T04:49:33;1004.64;;;25.32;40.46
48810;BME280;40070;47.322;18.784;2022-07-21T04:51:34;1004.63;;;25.35;40.47
48810;BME280;40070;47.322;18.784;2022-07-21T04:53:35;1004.61;;;25.42;40.30
48810;BME280;40070;47.322;18.784;2022-07-21T04:55:36;1004.62;;;25.52;40.20
48810;BME280;40070;47.322;18.784;2022-07-21T04:57:40;1004.59;;;25.63;40.11
48810;BME280;40070;47.322;18.784;2022-07-21T04:59:42;1004.60;;;25.74;40.07
48810;BME280;40070;47.322;18.784;2022-07-21T05:01:42;1004.60;;;25.84;39.87
48810;BME280;40070;47.322;18.784;2022-07-21T05:03:43;1004.65;;;25.94;39.94
48810;BME280;40070;47.322;18.784;2022-07-21T05:05:44;1004.64;;;26.06;39.63
48810;BME280;40070;47.322;18.784;2022-07-21T05:07:45;1004.65;;;26.15;39.32
48810;BME280;40070;47.322;18.784;2022-07-21T05:09:46;1004.64;;;26.29;38.50
48810;BME280;40070;47.322;18.784;2022-07-21T05:11:47;1004.58;;;26.42;37.69
48810;BME280;40070;47.322;18.784;2022-07-21T05:13:48;1004.62;;;26.56;37.63
48810;BME280;40070;47.322;18.784;2022-07-21T05:15:49;1004.66;;;26.76;37.91
48810;BME280;40070;47.322;18.784;2022-07-21T05:17:50;1004.62;;;26.97;37.51
48810;BME280;40070;47.322;18.784;2022-07-21T05:19:51;1004.66;;;27.13;37.09
48810;BME280;40070;47.322;18.784;2022-07-21T05:21:52;1004.69;;;27.29;36.88
48810;BME280;40070;47.322;18.784;2022-07-21T05:23:53;1004.73;;;27.52;36.32
48810;BME280;40070;47.322;18.784;2022-07-21T05:25:54;1004.74;;;27.47;36.45
48810;BME280;40070;47.322;18.784;2022-07-21T05:27:55;1004.75;;;27.78;35.90
48810;BME280;40070;47.322;18.784;2022-07-21T05:29:56;1004.76;;;27.97;35.09
48810;BME280;40070;47.322;18.784;2022-07-21T05:31:57;1004.76;;;28.21;34.53
48810;BME280;40070;47.322;18.784;2022-07-21T05:33:58;1004.84;;;28.26;34.59
48810;BME280;40070;47.322;18.784;2022-07-21T05:35:59;1004.85;;;28.38;34.14
48810;BME280;40070;47.322;18.784;2022-07-21T05:38:00;1004.90;;;28.71;34.32
48810;BME280;40070;47.322;18.784;2022-07-21T05:40:01;1004.90;;;28.70;34.28
48810;BME280;40070;47.322;18.784;2022-07-21T05:42:03;1004.89;;;28.68;33.08
48810;BME280;40070;47.322;18.784;2022-07-21T05:44:04;1004.93;;;28.87;33.23
48810;BME280;40070;47.322;18.784;2022-07-21T05:46:05;1004.93;;;28.92;33.25
48810;BME280;40070;47.322;18.784;2022-07-21T05:48:06;1004.91;;;29.11;32.70
48810;BME280;40070;47.322;18.784;2022-07-21T05:50:07;1004.92;;;29.32;32.33
48810;BME280;40070;47.322;18.784;2022-07-21T05:52:08;1004.92;;;29.44;31.95
48810;BME280;40070;47.322;18.784;2022-07-21T05:54:09;1004.90;;;29.37;32.04
48810;BME280;40070;47.322;18.784;2022-07-21T05:56:10;1004.89;;;29.45;32.02
48810;BME280;40070;47.322;18.784;2022-07-21T05:58:11;1004.94;;;29.72;31.49
48810;BME280;40070;47.322;18.784;2022-07-21T06:00:12;1004.94;;;29.70;31.16
48810;BME280;40070;47.322;18.784;2022-07-21T06:02:14;1004.95;;;29.85;31.17
48810;BME280;40070;47.322;18.784;2022-07-21T06:04:15;1004.95;;;29.86;31.73
48810;BME280;40070;47.322;18.784;2022-07-21T06:06:17;1004.94;;;30.04;31.18
48810;BME280;40070;47.322;18.784;2022-07-21T06:08:18;1004.95;;;30.07;31.15
48810;BME280;40070;47.322;18.784;2022-07-21T06:10:19;1004.95;;;30.30;30.67
48810;BME280;40070;47.322;18.784;2022-07-21T06:12:20;1004.96;;;30.41;30.40
48810;BME280;40070;47.322;18.784;2022-07-21T06:14:21;1004.93;;;30.25;30.44
48810;BME280;40070;47.322;18.784;2022-07-21T06:16:22;1004.98;;;30.59;30.09
48810;BME280;40070;47.322;18.784;2022-07-21T06:18:23;1005.00;;;30.59;30.15
48810;BME280;40070;47.322;18.784;2022-07-21T06:20:24;1004.96;;;30.72;30.18
48810;BME280;40070;47.322;18.784;2022-07-21T06:22:25;1004.97;;;30.87;29.63
48810;BME280;40070;47.322;18.784;2022-07-21T06:24:26;1004.92;;;30.90;29.73
48810;BME280;40070;47.322;18.784;2022-07-21T06:26:27;1004.91;;;30.96;29.83
48810;BME280;40070;47.322;18.784;2022-07-21T06:28:28;1004.93;;;30.96;29.60
48810;BME280;40070;47.322;18.784;2022-07-21T06:30:29;1004.92;;;30.97;29.72
48810;BME280;40070;47.322;18.784;2022-07-21T06:32:30;1004.89;;;30.97;30.17
48810;BME280;40070;47.322;18.784;2022-07-21T06:34:31;1004.89;;;30.86;30.12
48810;BME280;40070;47.322;18.784;2022-07-21T06:36:32;1004.89;;;30.89;29.83
48810;BME280;40070;47.322;18.784;2022-07-21T06:38:33;1004.89;;;30.83;29.36
48810;BME280;40070;47.322;18.784;2022-07-21T06:40:34;1004.96;;;30.83;29.58
48810;BME280;40070;47.322;18.784;2022-07-21T06:42:35;1004.94;;;31.09;29.66
48810;BME280;40070;47.322;18.784;2022-07-21T06:44:35;1004.91;;;31.01;29.64
48810;BME280;40070;47.322;18.784;2022-07-21T06:46:36;1004.96;;;31.10;29.45
48810;BME280;40070;47.322;18.784;2022-07-21T06:48:37;1004.95;;;30.97;29.43
48810;BME280;40070;47.322;18.784;2022-07-21T06:50:38;1004.96;;;31.20;29.49
48810;BME280;40070;47.322;18.784;2022-07-21T06:52:39;1004.95;;;31.37;29.45
48810;BME280;40070;47.322;18.784;2022-07-21T06:54:40;1004.94;;;31.55;29.00
48810;BME280;40070;47.322;18.784;2022-07-21T06:56:41;1004.91;;;31.46;29.24
48810;BME280;40070;47.322;18.784;2022-07-21T06:58:42;1004.92;;;31.74;29.05
48810;BME280;40070;47.322;18.784;2022-07-21T07:00:44;1004.92;;;31.51;28.85
48810;BME280;40070;47.322;18.784;2022-07-21T07:02:45;1004.95;;;31.77;28.71
48810;BME280;40070;47.322;18.784;2022-07-21T07:04:46;1004.96;;;31.78;28.68
48810;BME280;40070;47.322;18.784;2022-07-21T07:06:47;1004.98;;;31.89;28.44
48810;BME280;40070;47.322;18.784;2022-07-21T07:08:48;1004.98;;;31.86;28.12
48810;BME280;40070;47.322;18.784;2022-07-21T07:10:49;1004.95;;;31.85;28.08
48810;BME280;40070;47.322;18.784;2022-07-21T07:12:50;1004.90;;;31.97;28.11
48810;BME280;40070;47.322;18.784;2022-07-21T07:14:51;1004.93;;;32.04;28.38
48810;BME280;40070;47.322;18.784;2022-07-21T07:16:52;1004.94;;;31.95;28.18
48810;BME280;40070;47.322;18.784;2022-07-21T07:18:53;1004.93;;;32.10;28.15
48810;BME280;40070;47.322;18.784;2022-07-21T07:20:54;1004.94;;;32.22;28.10
48810;BME280;40070;47.322;18.784;2022-07-21T07:22:55;1004.95;;;32.56;28.13
48810;BME280;40070;47.322;18.784;2022-07-21T07:24:56;1004.94;;;32.48;27.45
48810;BME280;40070;47.322;18.784;2022-07-21T07:26:57;1004.89;;;32.53;27.12
48810;BME280;40070;47.322;18.784;2022-07-21T07:28:58;1004.96;;;32.70;26.94
48810;BME280;40070;47.322;18.784;2022-07-21T07:31:00;1004.94;;;32.75;26.86
48810;BME280;40070;47.322;18.784;2022-07-21T07:33:01;1004.91;;;32.52;27.48
48810;BME280;40070;47.322;18.784;2022-07-21T07:35:02;1004.92;;;32.72;26.87
48810;BME280;40070;47.322;18.784;2022-07-21T07:37:03;1004.86;;;32.56;27.17
48810;BME280;40070;47.322;18.784;2022-07-21T07:39:04;1004.82;;;32.80;27.10
48810;BME280;40070;47.322;18.784;2022-07-21T07:41:05;1004.81;;;32.86;26.89
48810;BME280;40070;47.322;18.784;2022-07-21T07:43:06;1004.78;;;33.27;26.54
48810;BME280;40070;47.322;18.784;2022-07-21T07:45:07;1004.79;;;33.25;26.63
48810;BME280;40070;47.322;18.784;2022-07-21T07:47:08;1004.82;;;33.19;26.38
48810;BME280;40070;47.322;18.784;2022-07-21T07:49:09;1004.82;;;33.63;25.35
48810;BME280;40070;47.322;18.784;2022-07-21T07:51:10;1004.80;;;33.60;25.29
48810;BME280;40070;47.322;18.784;2022-07-21T07:53:12;1004.81;;;33.51;25.54
48810;BME280;40070;47.322;18.784;2022-07-21T07:55:12;1004.82;;;33.42;25.85
48810;BME280;40070;47.322;18.784;2022-07-21T07:57:13;1004.82;;;33.80;25.19
48810;BME280;40070;47.322;18.784;2022-07-21T07:59:14;1004.84;;;33.87;24.89
48810;BME280;40070;47.322;18.784;2022-07-21T08:01:16;1004.83;;;33.90;24.70
48810;BME280;40070;47.322;18.784;2022-07-21T08:03:17;1004.82;;;33.84;24.82
48810;BME280;40070;47.322;18.784;2022-07-21T08:05:18;1004.83;;;33.94;25.05
48810;BME280;40070;47.322;18.784;2022-07-21T08:07:19;1004.78;;;34.19;24.26
48810;BME280;40070;47.322;18.784;2022-07-21T08:09:20;1004.81;;;34.10;24.72
48810;BME280;40070;47.322;18.784;2022-07-21T08:11:21;1004.79;;;34.24;24.82
48810;BME280;40070;47.322;18.784;2022-07-21T08:13:22;1004.76;;;34.14;23.45
48810;BME280;40070;47.322;18.784;2022-07-21T08:15:23;1004.72;;;34.44;23.41
48810;BME280;40070;47.322;18.784;2022-07-21T08:17:25;1004.71;;;34.31;23.36
48810;BME280;40070;47.322;18.784;2022-07-21T08:19:26;1004.69;;;34.43;23.43
48810;BME280;40070;47.322;18.784;2022-07-21T08:21:27;1004.68;;;34.57;23.68
48810;BME280;40070;47.322;18.784;2022-07-21T08:23:28;1004.65;;;34.92;23.08
48810;BME280;40070;47.322;18.784;2022-07-21T08:25:29;1004.60;;;35.20;22.74
48810;BME280;40070;47.322;18.784;2022-07-21T08:27:30;1004.61;;;35.48;22.45
48810;BME280;40070;47.322;18.784;2022-07-21T08:29:31;1004.54;;;35.45;22.70
48810;BME280;40070;47.322;18.784;2022-07-21T08:31:32;1004.57;;;35.56;22.30
48810;BME280;40070;47.322;18.784;2022-07-21T08:33:33;1004.56;;;35.75;22.18
48810;BME280;40070;47.322;18.784;2022-07-21T08:35:34;1004.55;;;35.83;22.25
48810;BME280;40070;47.322;18.784;2022-07-21T08:37:35;1004.62;;;35.69;22.00
48810;BME280;40070;47.322;18.784;2022-07-21T08:39:36;1004.58;;;35.85;21.62
48810;BME280;40070;47.322;18.784;2022-07-21T08:41:37;1004.55;;;35.83;21.20
48810;BME280;40070;47.322;18.784;2022-07-21T08:43:40;1004.55;;;35.74;21.10
48810;BME280;40070;47.322;18.784;2022-07-21T08:45:41;1004.53;;;35.80;21.25
48810;BME280;40070;47.322;18.784;2022-07-21T08:47:42;1004.51;;;35.92;20.99
48810;BME280;40070;47.322;18.784;2022-07-21T08:49:44;1004.56;;;35.93;21.12
48810;BME280;40070;47.322;18.784;2022-07-21T08:51:46;1004.55;;;36.03;21.57
48810;BME280;40070;47.322;18.784;2022-07-21T08:53:47;1004.60;;;36.07;22.08
48810;BME280;40070;47.322;18.784;2022-07-21T08:55:48;1004.56;;;35.66;21.72
48810;BME280;40070;47.322;18.784;2022-07-21T08:57:50;1004.53;;;36.15;21.08
48810;BME280;40070;47.322;18.784;2022-07-21T08:59:51;1004.56;;;36.40;20.78
48810;BME280;40070;47.322;18.784;2022-07-21T09:01:52;1004.52;;;36.21;20.92
48810;BME280;40070;47.322;18.784;2022-07-21T09:03:53;1004.54;;;36.40;20.91
48810;BME280;40070;47.322;18.784;2022-07-21T09:06:13;1004.54;;;36.58;20.85
48810;BME280;40070;47.322;18.784;2022-07-21T09:08:14;1004.48;;;36.67;20.72
48810;BME280;40070;47.322;18.784;2022-07-21T09:10:16;1004.45;;;36.86;20.54
48810;BME280;40070;47.322;18.784;2022-07-21T09:12:21;1004.44;;;37.04;20.35
48810;BME280;40070;47.322;18.784;2022-07-21T09:14:25;1004.47;;;36.99;20.71
48810;BME280;40070;47.322;18.784;2022-07-21T09:16:42;1004.44;;;37.07;20.44
48810;BME280;40070;47.322;18.784;2022-07-21T09:18:47;1004.45;;;37.08;20.08
48810;BME280;40070;47.322;18.784;2022-07-21T09:20:49;1004.40;;;36.94;19.91
48810;BME280;40070;47.322;18.784;2022-07-21T09:23:08;1004.40;;;37.09;20.05
48810;BME280;40070;47.322;18.784;2022-07-21T09:25:09;1004.38;;;36.89;20.07
48810;BME280;40070;47.322;18.784;2022-07-21T09:27:14;1004.35;;;37.30;19.72
48810;BME280;40070;47.322;18.784;2022-07-21T09:29:15;1004.34;;;37.52;19.68
48810;BME280;40070;47.322;18.784;2022-07-21T09:31:16;1004.32;;;37.42;19.39
48810;BME280;40070;47.322;18.784;2022-07-21T09:35:35;1004.26;;;37.53;19.74
48810;BME280;40070;47.322;18.784;2022-07-21T09:37:37;1004.25;;;37.64;19.10
48810;BME280;40070;47.322;18.784;2022-07-21T09:39:49;1004.26;;;37.44;19.57
48810;BME280;40070;47.322;18.784;2022-07-21T09:41:50;1004.24;;;37.72;19.10
48810;BME280;40070;47.322;18.784;2022-07-21T09:43:52;1004.22;;;37.99;19.11
48810;BME280;40070;47.322;18.784;2022-07-21T09:45:54;1004.22;;;38.02;19.05
48810;BME280;40070;47.322;18.784;2022-07-21T09:47:55;1004.22;;;37.88;18.94
48810;BME280;40070;47.322;18.784;2022-07-21T09:49:56;1004.22;;;37.65;19.00
48810;BME280;40070;47.322;18.784;2022-07-21T09:51:57;1004.22;;;37.91;18.73
48810;BME280;40070;47.322;18.784;2022-07-21T09:54:11;1004.20;;;37.97;18.99
48810;BME280;40070;47.322;18.784;2022-07-21T09:56:13;1004.16;;;38.07;18.68
48810;BME280;40070;47.322;18.784;2022-07-21T09:58:14;1004.16;;;37.78;18.88
48810;BME280;40070;47.322;18.784;2022-07-21T10:00:17;1004.10;;;38.21;18.71
48810;BME280;40070;47.322;18.784;2022-07-21T10:02:22;1004.11;;;38.37;18.77
48810;BME280;40070;47.322;18.784;2022-07-21T10:04:24;1004.12;;;37.95;18.64
48810;BME280;40070;47.322;18.784;2022-07-21T10:06:26;1004.07;;;38.14;18.78
48810;BME280;40070;47.322;18.784;2022-07-21T10:08:27;1004.07;;;38.36;18.42
48810;BME280;40070;47.322;18.784;2022-07-21T10:10:28;1004.02;;;38.39;18.40
48810;BME280;40070;47.322;18.784;2022-07-21T10:12:30;1004.01;;;38.51;18.32
48810;BME280;40070;47.322;18.784;2022-07-21T10:14:31;1004.00;;;38.22;18.26
48810;BME280;40070;47.322;18.784;2022-07-21T10:16:32;1003.95;;;38.44;18.32
48810;BME280;40070;47.322;18.784;2022-07-21T10:18:35;1003.92;;;38.40;18.14
48810;BME280;40070;47.322;18.784;2022-07-21T10:20:37;1003.85;;;38.92;18.03
48810;BME280;40070;47.322;18.784;2022-07-21T10:22:48;1003.85;;;38.94;17.91
48810;BME280;40070;47.322;18.784;2022-07-21T10:24:53;1003.85;;;38.66;18.00
48810;BME280;40070;47.322;18.784;2022-07-21T10:27:07;1003.89;;;38.10;18.63
48810;BME280;40070;47.322;18.784;2022-07-21T10:29:08;1003.92;;;38.57;18.46
48810;BME280;40070;47.322;18.784;2022-07-21T10:31:19;1003.92;;;38.55;18.24
48810;BME280;40070;47.322;18.784;2022-07-21T10:33:21;1003.83;;;38.38;18.12
48810;BME280;40070;47.322;18.784;2022-07-21T10:35:29;1003.78;;;38.57;18.15
48810;BME280;40070;47.322;18.784;2022-07-21T10:37:43;1003.85;;;38.43;18.18
48810;BME280;40070;47.322;18.784;2022-07-21T10:39:44;1003.79;;;38.27;18.20
48810;BME280;40070;47.322;18.784;2022-07-21T10:41:49;1003.80;;;38.30;18.27
48810;BME280;40070;47.322;18.784;2022-07-21T10:43:50;1003.79;;;38.39;18.25
48810;BME280;40070;47.322;18.784;2022-07-21T10:45:52;1003.76;;;38.54;18.11
48810;BME280;40070;47.322;18.784;2022-07-21T10:47:53;1003.71;;;38.84;18.36